Time;durP1;ratioP1;P1;durP2;ratioP2;P2;SDS_P1;SDS_P2;PMS_P1;PMS_P2;Temp;Humidity;BMP_temperature;BMP_pressure;BME280_temperature;BME280_humidity;BME280_pressure;Samples;Min_cycle;Max_cycle;Signal;HPM_P1;HPM_P2
2023/05/21 00:01:18;;;;;;;6.23;2.63;;;14.90;99.90;;;;;;5030514;28;20449;-70
2023/05/21 00:03:44;;;;;;;5.33;2.40;;;14.80;99.90;;;;;;5034156;28;20036;-70
2023/05/21 00:06:12;;;;;;;5.00;2.83;;;14.80;99.90;;;;;;5023689;28;20363;-70
2023/05/21 00:08:38;;;;;;;6.18;2.65;;;14.80;99.90;;;;;;5038879;28;20052;-70
2023/05/21 00:11:04;;;;;;;;;;;14.80;99.90;;;;;;5013654;28;20041;-70
2023/05/21 00:13:30;;;;;;;6.28;2.63;;;14.80;99.90;;;;;;5013415;28;20055;-71
2023/05/21 00:15:56;;;;;;;3.53;2.20;;;14.80;99.90;;;;;;5012719;28;20543;-70
2023/05/21 00:18:24;;;;;;;5.27;3.00;;;14.80;99.90;;;;;;5035505;28;20046;-70
2023/05/21 00:20:50;;;;;;;7.03;2.63;;;14.80;99.90;;;;;;5020934;28;20297;-70
2023/05/21 00:23:17;;;;;;;3.63;2.25;;;14.80;99.90;;;;;;5041089;28;20151;-70
2023/05/21 00:25:44;;;;;;;3.85;2.47;;;14.80;99.90;;;;;;5019544;28;20072;-70
2023/05/21 00:28:10;;;;;;;6.13;2.80;;;14.80;99.90;;;;;;5036701;28;20306;-70
2023/05/21 00:30:36;;;;;;;4.70;2.63;;;14.70;99.90;;;;;;5012250;28;20041;-70
2023/05/21 00:33:01;;;;;;;8.75;2.63;;;14.70;99.90;;;;;;5036746;28;20052;-70
2023/05/21 00:35:28;;;;;;;7.97;2.67;;;14.70;99.90;;;;;;5037295;28;20486;-70
2023/05/21 00:37:54;;;;;;;;;;;14.70;99.90;;;;;;5042099;28;20048;-70
2023/05/21 00:40:20;;;;;;;7.22;2.60;;;14.70;99.90;;;;;;5032676;28;20390;-70
2023/05/21 00:42:46;;;;;;;4.18;2.55;;;14.60;99.90;;;;;;5079225;22;20036;-67
2023/05/21 00:45:15;;;;;;;5.38;2.30;;;14.70;99.90;;;;;;5088002;28;20082;-66
2023/05/21 00:47:42;;;;;;;4.25;2.30;;;14.60;99.90;;;;;;5087192;28;20032;-66
2023/05/21 00:50:09;;;;;;;6.63;2.38;;;14.60;99.90;;;;;;5094507;28;20124;-66
2023/05/21 00:52:40;;;;;;;4.35;2.50;;;14.60;99.90;;;;;;5092128;28;20043;-66
2023/05/21 00:55:07;;;;;;;3.70;2.45;;;14.60;99.90;;;;;;5095749;28;20039;-66
2023/05/21 00:57:33;;;;;;;4.65;2.78;;;14.60;99.90;;;;;;5094365;28;20102;-67
2023/05/21 00:59:58;;;;;;;;;;;14.60;99.90;;;;;;5086821;28;20435;-66
2023/05/21 01:02:24;;;;;;;4.20;2.40;;;14.60;99.90;;;;;;5094872;28;19978;-66
2023/05/21 01:04:54;;;;;;;6.50;2.42;;;14.60;99.90;;;;;;5099377;28;20422;-66
2023/05/21 01:07:20;;;;;;;6.13;2.88;;;14.60;99.90;;;;;;5089958;28;20230;-66
2023/05/21 01:09:46;;;;;;;6.68;2.92;;;14.60;99.90;;;;;;5091381;28;20039;-66
2023/05/21 01:12:13;;;;;;;5.63;2.60;;;14.60;99.90;;;;;;5093327;28;20131;-66
2023/05/21 01:14:40;;;;;;;4.60;2.40;;;14.60;99.90;;;;;;5096323;28;20126;-67
2023/05/21 01:17:09;;;;;;;3.85;2.40;;;14.60;99.90;;;;;;5090308;28;20101;-66
2023/05/21 01:19:35;;;;;;;5.03;2.22;;;14.60;99.90;;;;;;5095951;28;20035;-67
2023/05/21 01:22:05;;;;;;;;;;;14.50;99.90;;;;;;5090361;28;20111;-66
2023/05/21 01:24:31;;;;;;;4.20;2.20;;;14.50;99.90;;;;;;5087393;28;19946;-67
2023/05/21 01:27:00;;;;;;;5.60;2.65;;;14.50;99.90;;;;;;5091812;28;20043;-66
2023/05/21 01:29:25;;;;;;;4.55;2.45;;;14.50;99.90;;;;;;5087403;28;20134;-66
2023/05/21 01:32:06;;;;;;;6.20;2.70;;;14.50;99.90;;;;;;5093124;28;20456;-66
2023/05/21 01:34:58;;;;;;;6.55;2.38;;;14.50;99.90;;;;;;5088109;28;20528;-66
2023/05/21 01:37:56;;;;;;;3.90;2.53;;;14.50;99.90;;;;;;5080080;28;20094;-67
2023/05/21 01:40:38;;;;;;;6.50;2.78;;;14.50;99.90;;;;;;5090509;28;20057;-67
2023/05/21 01:43:05;;;;;;;4.43;2.67;;;14.40;99.90;;;;;;5086486;28;20400;-67
2023/05/21 01:45:33;;;;;;;5.40;2.80;;;14.40;99.90;;;;;;5087183;28;20123;-67
2023/05/21 01:47:59;;;;;;;5.57;3.05;;;14.50;99.90;;;;;;5083996;28;20052;-67
2023/05/21 01:50:25;;;;;;;5.22;2.13;;;14.50;99.90;;;;;;5093655;27;20340;-67
2023/05/21 01:52:53;;;;;;;4.97;2.63;;;14.50;99.90;;;;;;5094005;28;20063;-66
2023/05/21 01:55:23;;;;;;;5.28;2.42;;;14.50;99.90;;;;;;5092121;28;20044;-67
2023/05/21 01:57:51;;;;;;;4.93;2.33;;;14.50;99.90;;;;;;5087812;28;20040;-67
2023/05/21 02:00:17;;;;;;;4.57;2.42;;;14.40;99.90;;;;;;5088616;28;20055;-67
2023/05/21 02:02:43;;;;;;;4.93;2.50;;;14.40;99.90;;;;;;5091025;28;20143;-67
2023/05/21 02:05:08;;;;;;;6.40;2.70;;;14.50;99.90;;;;;;5089909;28;20158;-67
2023/05/21 02:07:36;;;;;;;4.38;2.60;;;14.40;99.90;;;;;;5093869;28;20039;-67
2023/05/21 02:10:02;;;;;;;5.15;2.42;;;14.40;99.90;;;;;;5089716;28;20047;-67
2023/05/21 02:12:28;;;;;;;3.58;2.15;;;14.40;99.90;;;;;;5088290;28;20114;-67
2023/05/21 02:14:55;;;;;;;5.88;3.00;;;14.50;99.90;;;;;;5093846;28;20164;-67
2023/05/21 02:17:23;;;;;;;4.25;2.35;;;14.40;99.90;;;;;;5086702;28;20075;-67
2023/05/21 02:19:48;;;;;;;8.23;2.70;;;14.40;99.90;;;;;;5093170;28;20043;-67
2023/05/21 02:22:14;;;;;;;8.43;2.95;;;14.40;99.90;;;;;;5085840;28;20043;-68
2023/05/21 02:24:40;;;;;;;4.15;2.65;;;14.40;99.90;;;;;;5089492;28;20044;-67
2023/05/21 02:27:05;;;;;;;4.00;2.25;;;14.30;99.90;;;;;;5093457;28;20040;-67
2023/05/21 02:29:32;;;;;;;4.90;2.58;;;14.30;99.90;;;;;;5083974;28;20249;-66
2023/05/21 02:31:57;;;;;;;9.57;3.45;;;14.30;99.90;;;;;;5084801;28;20031;-67
2023/05/21 02:34:23;;;;;;;5.97;3.05;;;14.40;99.90;;;;;;5084236;28;20043;-68
2023/05/21 02:36:52;;;;;;;6.25;3.28;;;14.40;99.90;;;;;;5089781;28;20434;-69
2023/05/21 02:39:18;;;;;;;5.53;2.90;;;14.40;99.90;;;;;;5095773;28;20035;-67
2023/05/21 02:41:45;;;;;;;5.68;3.28;;;14.40;99.90;;;;;;5095651;28;20082;-67
2023/05/21 02:44:11;;;;;;;7.50;3.67;;;14.40;99.90;;;;;;5093401;28;20047;-67
2023/05/21 02:46:39;;;;;;;7.80;4.00;;;14.40;99.90;;;;;;5094057;28;20163;-67
2023/05/21 02:49:05;;;;;;;8.00;4.03;;;14.30;99.90;;;;;;5091557;28;20040;-67
2023/05/21 02:51:31;;;;;;;7.13;3.47;;;14.30;99.90;;;;;;5094293;28;20062;-67
2023/05/21 02:53:56;;;;;;;8.38;3.83;;;14.30;99.90;;;;;;5093428;28;20480;-67
2023/05/21 02:56:22;;;;;;;9.27;4.35;;;14.30;99.90;;;;;;5091386;28;20039;-67
2023/05/21 02:58:47;;;;;;;7.13;4.40;;;14.30;99.90;;;;;;5091701;28;20044;-67
2023/05/21 03:01:13;;;;;;;11.33;3.70;;;14.30;99.90;;;;;;5091284;28;20046;-67
2023/05/21 03:03:39;;;;;;;9.10;4.05;;;14.30;99.90;;;;;;5098579;28;20509;-67
2023/05/21 03:06:05;;;;;;;6.70;3.60;;;14.20;99.90;;;;;;5094396;28;20456;-67
2023/05/21 03:08:31;;;;;;;8.68;3.70;;;14.20;99.90;;;;;;5097474;28;20035;-67
2023/05/21 03:10:56;;;;;;;8.50;4.07;;;14.10;99.90;;;;;;5100997;28;20132;-67
2023/05/21 03:13:22;;;;;;;8.82;4.18;;;14.10;99.90;;;;;;5092633;28;20051;-67
2023/05/21 03:15:48;;;;;;;7.53;3.40;;;14.10;99.90;;;;;;5095482;28;20047;-67
2023/05/21 03:18:13;;;;;;;10.67;4.20;;;14.10;99.90;;;;;;5096440;28;20745;-66
2023/05/21 03:20:42;;;;;;;7.77;3.80;;;14.00;99.90;;;;;;5090731;28;20047;-67
2023/05/21 03:23:08;;;;;;;11.50;4.40;;;14.00;99.90;;;;;;5094217;28;20553;-67
2023/05/21 03:25:35;;;;;;;6.22;3.50;;;14.00;99.90;;;;;;5077435;28;20043;-67
2023/05/21 03:28:01;;;;;;;6.38;3.85;;;14.00;99.90;;;;;;5100421;28;20070;-67
2023/05/21 03:30:27;;;;;;;8.57;4.15;;;13.90;99.90;;;;;;5094550;28;20120;-67
2023/05/21 03:32:52;;;;;;;8.17;3.60;;;13.90;99.90;;;;;;5075981;28;21939;-66
2023/05/21 03:35:18;;;;;;;11.73;4.28;;;13.90;99.90;;;;;;5100575;28;20529;-67
2023/05/21 03:37:43;;;;;;;11.17;3.87;;;13.80;99.90;;;;;;5077843;28;20404;-67
2023/05/21 03:40:10;;;;;;;6.93;3.60;;;13.80;99.90;;;;;;5094719;28;20280;-67
2023/05/21 03:42:36;;;;;;;9.25;4.07;;;13.80;99.90;;;;;;5092065;28;20275;-67
2023/05/21 03:45:02;;;;;;;7.47;3.85;;;13.80;99.90;;;;;;5095231;28;20031;-67
2023/05/21 03:47:28;;;;;;;8.50;4.05;;;13.80;99.90;;;;;;5097866;28;20054;-67
2023/05/21 03:49:54;;;;;;;7.40;4.10;;;13.80;99.90;;;;;;5095674;28;20503;-67
2023/05/21 03:52:19;;;;;;;9.45;4.30;;;13.80;99.90;;;;;;5101441;28;20050;-67
2023/05/21 03:54:45;;;;;;;8.03;4.40;;;13.70;99.90;;;;;;5090998;28;20034;-67
2023/05/21 03:57:10;;;;;;;9.17;4.00;;;13.70;99.90;;;;;;5078151;28;20356;-66
2023/05/21 03:59:36;;;;;;;11.75;4.38;;;13.80;99.90;;;;;;5100706;28;20100;-67
2023/05/21 04:02:02;;;;;;;8.17;4.40;;;13.80;99.90;;;;;;5095870;28;20326;-67
2023/05/21 04:04:28;;;;;;;8.20;3.92;;;13.80;99.90;;;;;;5101158;28;20064;-67
2023/05/21 04:06:54;;;;;;;11.65;4.28;;;13.70;99.90;;;;;;5102330;28;20039;-67
2023/05/21 04:09:20;;;;;;;11.70;4.30;;;13.80;99.90;;;;;;5097682;28;20055;-67
2023/05/21 04:11:46;;;;;;;12.10;4.95;;;13.80;99.90;;;;;;5096397;28;20040;-67
2023/05/21 04:14:12;;;;;;;;;;;13.80;99.90;;;;;;5099191;28;20094;-67
2023/05/21 04:16:38;;;;;;;9.77;4.25;;;13.80;99.90;;;;;;5102818;28;19950;-67
2023/05/21 04:19:05;;;;;;;7.45;4.45;;;13.80;99.90;;;;;;5100238;28;20031;-67
2023/05/21 04:21:31;;;;;;;11.38;4.78;;;13.80;99.90;;;;;;5102620;28;20044;-67
2023/05/21 04:23:57;;;;;;;8.68;4.72;;;13.80;99.90;;;;;;5096902;28;20061;-67
2023/05/21 04:26:24;;;;;;;14.18;3.88;;;13.80;99.90;;;;;;5099979;28;20517;-67
2023/05/21 04:28:49;;;;;;;8.43;4.88;;;13.90;99.90;;;;;;5101024;28;20039;-67
2023/05/21 04:31:15;;;;;;;20.60;4.93;;;13.80;99.90;;;;;;5098396;27;20504;-67
2023/05/21 04:33:44;;;;;;;12.20;4.63;;;13.90;99.90;;;;;;5099519;28;20051;-67
2023/05/21 04:36:10;;;;;;;7.30;4.28;;;13.90;99.90;;;;;;5091694;28;20039;-67
2023/05/21 04:38:36;;;;;;;9.27;4.70;;;13.80;99.90;;;;;;5078064;28;20444;-67
2023/05/21 04:41:05;;;;;;;12.10;4.55;;;13.90;99.90;;;;;;5102214;28;20044;-66
2023/05/21 04:43:31;;;;;;;8.73;3.80;;;13.90;99.90;;;;;;5096031;28;20055;-69
2023/05/21 04:45:57;;;;;;;8.18;3.92;;;13.80;99.90;;;;;;5098479;28;20040;-67
2023/05/21 04:48:26;;;;;;;15.40;4.50;;;13.80;99.90;;;;;;5095580;27;20036;-66
2023/05/21 04:50:55;;;;;;;8.65;4.35;;;13.80;99.90;;;;;;5095451;28;20043;-68
2023/05/21 04:53:22;;;;;;;7.93;3.58;;;13.80;99.90;;;;;;5097395;27;20143;-67
2023/05/21 04:55:48;;;;;;;8.55;4.05;;;13.90;99.90;;;;;;5094628;27;20050;-68
2023/05/21 04:58:16;;;;;;;6.05;3.65;;;13.80;99.90;;;;;;5101193;28;20051;-67
2023/05/21 05:00:44;;;;;;;10.90;4.38;;;13.90;99.90;;;;;;5101697;28;20044;-67
2023/05/21 05:03:10;;;;;;;9.40;3.72;;;13.90;99.90;;;;;;5096473;28;20247;-67
2023/05/21 05:05:36;;;;;;;8.60;3.53;;;13.90;99.90;;;;;;5100589;28;20661;-67
2023/05/21 05:08:02;;;;;;;10.27;3.80;;;13.90;99.90;;;;;;5101095;28;20044;-67
2023/05/21 05:10:28;;;;;;;6.38;3.38;;;13.90;99.90;;;;;;5095726;28;20043;-67
2023/05/21 05:12:54;;;;;;;8.05;4.03;;;13.90;99.90;;;;;;5091749;28;20418;-66
2023/05/21 05:15:19;;;;;;;9.47;3.37;;;14.00;99.90;;;;;;5102994;28;20130;-67
2023/05/21 05:17:47;;;;;;;9.52;3.88;;;14.00;99.90;;;;;;5095358;28;20035;-67
2023/05/21 05:20:12;;;;;;;6.30;3.63;;;14.00;99.90;;;;;;5084974;28;20051;-67
2023/05/21 05:22:38;;;;;;;7.55;3.60;;;14.10;99.90;;;;;;5101269;28;20055;-67
2023/05/21 05:25:05;;;;;;;10.82;3.50;;;14.00;99.90;;;;;;5100786;28;20128;-67
2023/05/21 05:27:30;;;;;;;10.40;3.33;;;14.10;99.90;;;;;;5099235;28;20043;-67
2023/05/21 05:29:56;;;;;;;7.40;3.47;;;14.10;99.90;;;;;;5095928;28;20035;-67
2023/05/21 05:32:22;;;;;;;6.17;3.20;;;14.10;99.90;;;;;;5093852;28;20379;-67
2023/05/21 05:34:47;;;;;;;7.80;3.10;;;14.10;99.90;;;;;;5102999;28;20035;-67
2023/05/21 05:37:13;;;;;;;7.53;3.57;;;14.20;99.90;;;;;;5099416;28;20304;-66
2023/05/21 05:39:38;;;;;;;7.60;3.27;;;14.20;99.90;;;;;;5096528;28;20126;-66
2023/05/21 05:42:04;;;;;;;5.00;2.87;;;14.10;99.90;;;;;;5099178;28;20311;-67
2023/05/21 05:44:30;;;;;;;8.02;2.67;;;14.20;99.90;;;;;;5094826;28;20177;-67
2023/05/21 05:46:55;;;;;;;6.97;2.90;;;14.20;99.90;;;;;;5095808;28;20369;-67
2023/05/21 05:49:21;;;;;;;8.33;3.10;;;14.30;99.90;;;;;;5093646;28;20024;-67
2023/05/21 05:51:46;;;;;;;5.23;2.90;;;14.30;99.90;;;;;;5103031;28;20626;-67
2023/05/21 05:54:12;;;;;;;7.00;2.63;;;14.30;99.90;;;;;;5099497;28;20043;-67
2023/05/21 05:56:38;;;;;;;7.82;2.97;;;14.40;99.90;;;;;;5087231;28;20036;-67
2023/05/21 05:59:03;;;;;;;6.37;2.73;;;14.40;99.90;;;;;;5095779;28;20410;-67
2023/05/21 06:01:30;;;;;;;6.07;2.97;;;14.50;99.90;;;;;;5093162;28;20284;-67
2023/05/21 06:03:56;;;;;;;6.10;2.72;;;14.50;99.90;;;;;;5096550;28;20292;-67
2023/05/21 06:06:22;;;;;;;11.05;3.03;;;14.50;99.90;;;;;;5094907;28;20389;-67
2023/05/21 06:08:47;;;;;;;7.78;3.45;;;14.60;99.90;;;;;;5099494;28;20994;-67
2023/05/21 06:11:15;;;;;;;7.28;2.95;;;14.60;99.90;;;;;;5094184;28;20035;-67
2023/05/21 06:13:41;;;;;;;7.80;2.58;;;14.70;99.90;;;;;;5097337;28;20062;-66
2023/05/21 06:16:08;;;;;;;10.55;3.38;;;14.70;99.90;;;;;;5099393;28;20043;-67
2023/05/21 06:18:34;;;;;;;9.35;2.97;;;14.60;99.90;;;;;;5101456;28;20487;-67
2023/05/21 06:21:00;;;;;;;5.28;2.97;;;14.70;99.90;;;;;;5092864;28;20124;-67
2023/05/21 06:23:26;;;;;;;5.78;2.60;;;14.80;99.90;;;;;;5091762;28;20490;-67
2023/05/21 06:25:51;;;;;;;10.05;2.80;;;14.90;99.90;;;;;;5095233;27;20071;-67
2023/05/21 06:28:17;;;;;;;8.93;2.90;;;14.90;99.90;;;;;;5092230;27;20040;-67
2023/05/21 06:30:43;;;;;;;4.53;3.10;;;15.00;99.90;;;;;;5100193;28;20050;-67
2023/05/21 06:33:08;;;;;;;7.63;3.03;;;15.00;99.90;;;;;;5096782;28;20119;-67
2023/05/21 06:35:35;;;;;;;7.45;2.63;;;15.10;99.90;;;;;;5092417;28;20042;-67
2023/05/21 06:38:01;;;;;;;6.03;2.85;;;15.10;99.90;;;;;;5094002;28;20122;-67
2023/05/21 06:40:27;;;;;;;7.07;2.90;;;15.20;99.90;;;;;;5097466;28;20122;-67
2023/05/21 06:42:54;;;;;;;8.15;3.03;;;15.20;99.90;;;;;;5088920;22;20582;-67
2023/05/21 06:45:22;;;;;;;6.97;2.90;;;15.40;99.90;;;;;;5055360;28;20502;-67
2023/05/21 06:47:47;;;;;;;6.25;3.35;;;15.40;99.90;;;;;;5066773;28;20097;-67
2023/05/21 06:50:13;;;;;;;7.22;3.00;;;15.40;99.90;;;;;;5058015;28;20028;-67
2023/05/21 06:52:39;;;;;;;5.07;2.38;;;15.40;99.90;;;;;;5056969;28;20508;-67
2023/05/21 06:55:05;;;;;;;6.97;3.30;;;15.40;99.90;;;;;;5061547;28;20124;-67
2023/05/21 06:57:30;;;;;;;6.82;2.60;;;15.50;99.90;;;;;;5061489;28;20070;-67
2023/05/21 06:59:56;;;;;;;7.53;3.50;;;15.50;99.90;;;;;;5058888;28;20036;-67
2023/05/21 07:02:21;;;;;;;7.07;2.93;;;15.50;99.90;;;;;;5057226;28;20281;-67
2023/05/21 07:04:47;;;;;;;7.50;3.17;;;15.60;99.90;;;;;;5064225;28;20373;-68
2023/05/21 07:07:13;;;;;;;5.97;2.80;;;15.60;99.90;;;;;;5052253;28;20428;-67
2023/05/21 07:09:38;;;;;;;7.95;2.83;;;15.70;99.90;;;;;;5066972;28;20089;-67
2023/05/21 07:12:04;;;;;;;8.00;3.33;;;15.70;99.90;;;;;;5065928;28;20037;-67
2023/05/21 07:14:30;;;;;;;7.20;2.85;;;15.80;99.90;;;;;;5072295;28;20036;-67
2023/05/21 07:16:55;;;;;;;5.25;2.88;;;15.90;99.90;;;;;;5062189;28;20033;-67
2023/05/21 07:19:21;;;;;;;5.53;2.33;;;15.90;99.90;;;;;;5064699;28;20390;-67
2023/05/21 07:21:48;;;;;;;5.93;2.78;;;16.00;99.90;;;;;;5059303;28;20518;-67
2023/05/21 07:24:13;;;;;;;5.20;2.90;;;16.00;99.90;;;;;;5061149;28;20129;-68
2023/05/21 07:26:39;;;;;;;6.05;2.78;;;16.00;99.90;;;;;;5059827;28;21141;-67
2023/05/21 07:29:05;;;;;;;5.35;2.67;;;16.00;99.90;;;;;;5058569;28;20076;-67
2023/05/21 07:31:31;;;;;;;9.82;2.70;;;16.10;99.90;;;;;;5060669;28;20647;-67
2023/05/21 07:33:57;;;;;;;6.90;2.72;;;16.10;99.90;;;;;;5060015;28;20405;-67
2023/05/21 07:36:22;;;;;;;6.63;2.75;;;16.10;99.90;;;;;;5064275;28;20136;-67
2023/05/21 07:38:48;;;;;;;7.43;2.85;;;16.10;99.90;;;;;;5060359;28;20040;-67
2023/05/21 07:41:13;;;;;;;8.25;2.78;;;16.10;99.90;;;;;;5051586;28;20048;-67
2023/05/21 07:43:39;;;;;;;5.25;2.85;;;16.10;99.90;;;;;;5061849;28;20094;-67
2023/05/21 07:46:05;;;;;;;8.30;3.35;;;16.20;99.90;;;;;;5068407;28;20501;-67
2023/05/21 07:48:30;;;;;;;5.70;2.72;;;16.20;99.90;;;;;;5061846;28;20029;-67
2023/05/21 07:50:57;;;;;;;7.82;3.08;;;16.30;99.90;;;;;;5061374;28;20130;-67
2023/05/21 07:53:22;;;;;;;8.40;3.10;;;16.30;99.90;;;;;;5065018;28;20186;-67
2023/05/21 07:55:48;;;;;;;6.93;2.72;;;16.40;99.90;;;;;;5064606;28;20366;-67
2023/05/21 07:58:18;;;;;;;5.97;2.85;;;16.40;99.90;;;;;;5060749;28;20132;-67
2023/05/21 08:00:46;;;;;;;6.47;2.58;;;16.40;99.90;;;;;;5063195;28;20055;-67
2023/05/21 08:03:15;;;;;;;7.20;2.47;;;16.50;99.90;;;;;;5071543;28;20428;-67
2023/05/21 08:05:48;;;;;;;8.45;3.47;;;16.50;99.90;;;;;;5059312;28;20041;-67
2023/05/21 08:08:17;;;;;;;8.88;3.22;;;16.50;99.90;;;;;;5063674;28;20040;-67
2023/05/21 08:10:44;;;;;;;6.35;3.05;;;16.60;99.90;;;;;;5064976;28;20132;-67
2023/05/21 08:13:15;;;;;;;5.63;3.08;;;16.60;99.90;;;;;;5047419;28;20562;-67
2023/05/21 08:15:41;;;;;;;5.85;3.10;;;16.70;99.90;;;;;;5063467;28;20375;-67
2023/05/21 08:18:07;;;;;;;4.45;2.50;;;16.70;99.90;;;;;;5064469;28;20127;-67
2023/05/21 08:20:33;;;;;;;5.53;2.42;;;16.80;99.90;;;;;;5059791;28;20044;-67
2023/05/21 08:23:01;;;;;;;6.22;2.83;;;16.90;99.90;;;;;;5060966;28;20452;-68
2023/05/21 08:25:27;;;;;;;6.50;2.70;;;17.00;99.90;;;;;;5064282;28;20033;-67
2023/05/21 08:27:53;;;;;;;6.20;2.50;;;17.10;99.90;;;;;;5062728;28;20602;-67
2023/05/21 08:30:18;;;;;;;7.07;2.40;;;17.30;99.90;;;;;;5054843;28;20072;-67
2023/05/21 08:32:44;;;;;;;6.10;2.35;;;17.30;99.90;;;;;;5062493;28;20040;-67
2023/05/21 08:35:10;;;;;;;4.95;2.55;;;17.30;99.90;;;;;;5063888;28;20079;-68
2023/05/21 08:37:36;;;;;;;7.03;2.53;;;17.40;99.90;;;;;;5066608;28;20051;-68
2023/05/21 08:40:03;;;;;;;6.13;2.53;;;17.40;99.90;;;;;;5057528;28;20040;-67
2023/05/21 08:42:45;;;;;;;6.80;2.45;;;17.50;99.90;;;;;;5073835;28;20046;-67
2023/05/21 08:45:13;;;;;;;4.68;2.47;;;17.50;99.90;;;;;;5059588;28;20221;-67
2023/05/21 08:47:42;;;;;;;4.22;2.13;;;17.50;99.90;;;;;;5062847;28;20028;-67
2023/05/21 08:50:13;;;;;;;4.38;2.45;;;17.60;99.90;;;;;;5058589;28;20036;-67
2023/05/21 08:52:39;;;;;;;7.05;2.63;;;17.60;99.90;;;;;;5060341;28;20514;-67
2023/05/21 08:55:05;;;;;;;;;;;17.70;99.90;;;;;;5063308;28;20080;-67
2023/05/21 08:57:31;;;;;;;4.65;1.88;;;17.70;99.90;;;;;;5068375;28;19971;-67
2023/05/21 08:59:57;;;;;;;6.90;2.00;;;17.70;99.90;;;;;;5066931;28;20079;-67
2023/05/21 09:02:26;;;;;;;8.80;2.33;;;17.70;99.90;;;;;;5065235;28;20132;-67
2023/05/21 09:04:56;;;;;;;5.13;2.67;;;17.70;99.90;;;;;;5063630;28;20393;-67
2023/05/21 09:07:24;;;;;;;6.20;2.65;;;17.70;99.90;;;;;;5063419;28;20438;-67
2023/05/21 09:10:01;;;;;;;3.25;1.60;;;17.70;99.90;;;;;;5066634;28;20035;-67
2023/05/21 09:12:28;;;;;;;6.55;2.15;;;17.70;99.90;;;;;;5060310;28;20060;-68
2023/05/21 09:14:55;;;;;;;;;;;17.60;99.90;;;;;;5072548;28;20127;-67
2023/05/21 09:17:21;;;;;;;;;;;17.60;99.90;;;;;;5064353;28;20315;-67
2023/05/21 09:20:13;;;;;;;4.55;2.25;;;17.60;99.90;;;;;;5061676;28;20009;-67
2023/05/21 09:22:50;;;;;;;6.53;2.20;;;17.60;99.90;;;;;;5071295;28;20119;-67
2023/05/21 09:25:16;;;;;;;;;;;17.60;99.90;;;;;;5061231;28;20589;-67
2023/05/21 09:27:43;;;;;;;4.57;1.90;;;17.60;99.90;;;;;;5051333;28;19966;-67
2023/05/21 09:30:18;;;;;;;;;;;17.70;99.90;;;;;;5060717;28;20040;-67
2023/05/21 09:32:44;;;;;;;4.97;2.00;;;17.70;99.90;;;;;;5055698;28;20370;-68
2023/05/21 09:35:15;;;;;;;7.07;2.10;;;17.80;99.90;;;;;;5057253;28;20048;-67
2023/05/21 09:37:42;;;;;;;4.32;1.95;;;17.80;99.90;;;;;;5060054;28;20066;-67
2023/05/21 09:40:15;;;;;;;3.97;2.00;;;17.90;99.90;;;;;;5048725;28;20047;-67
2023/05/21 09:42:49;;;;;;;3.60;1.88;;;18.00;99.90;;;;;;5061862;28;20429;-67
2023/05/21 09:45:22;;;;;;;4.57;2.15;;;18.00;99.90;;;;;;5066747;28;20055;-67
2023/05/21 09:47:49;;;;;;;11.73;2.22;;;18.00;99.90;;;;;;5066062;28;20109;-67
2023/05/21 09:50:26;;;;;;;7.28;2.45;;;18.10;99.90;;;;;;5067844;28;20104;-67
2023/05/21 09:52:54;;;;;;;5.47;2.65;;;18.00;99.90;;;;;;5062478;28;20032;-67
2023/05/21 09:55:24;;;;;;;6.10;1.80;;;18.10;99.90;;;;;;5060246;28;20068;-68
2023/05/21 09:57:51;;;;;;;5.60;2.50;;;18.20;99.90;;;;;;5066391;28;20050;-68
2023/05/21 10:00:21;;;;;;;5.07;1.98;;;18.30;99.90;;;;;;5059306;28;20169;-68
2023/05/21 10:02:59;;;;;;;4.78;2.03;;;18.30;99.90;;;;;;5062015;28;20398;-67
2023/05/21 10:05:29;;;;;;;4.55;2.05;;;18.40;99.90;;;;;;5057696;28;20192;-68
2023/05/21 10:08:03;;;;;;;4.97;1.95;;;18.40;99.90;;;;;;5053898;28;20033;-67
2023/05/21 10:10:30;;;;;;;5.38;2.28;;;18.50;99.90;;;;;;5058777;28;20121;-67
2023/05/21 10:12:59;;;;;;;4.63;1.75;;;18.60;99.90;;;;;;5053917;28;20206;-67
2023/05/21 10:15:29;;;;;;;6.03;2.10;;;18.70;99.90;;;;;;5053045;28;20051;-67
2023/05/21 10:17:55;;;;;;;5.25;1.80;;;18.80;99.90;;;;;;5056217;28;20047;-68
2023/05/21 10:20:21;;;;;;;5.53;2.08;;;18.90;99.90;;;;;;5049238;28;20052;-68
2023/05/21 10:22:48;;;;;;;5.57;2.30;;;19.00;99.90;;;;;;5055010;28;20051;-67
2023/05/21 10:25:17;;;;;;;4.47;1.95;;;19.00;99.90;;;;;;5057601;28;20063;-67
2023/05/21 10:27:43;;;;;;;4.30;1.70;;;19.00;99.90;;;;;;5058876;28;20037;-67
2023/05/21 10:30:10;;;;;;;4.95;2.35;;;19.00;99.90;;;;;;5037236;28;20138;-68
2023/05/21 10:32:40;;;;;;;7.60;1.90;;;19.00;99.90;;;;;;5044522;28;20033;-67
2023/05/21 10:35:07;;;;;;;3.75;1.83;;;19.00;99.90;;;;;;5053217;28;20109;-68
2023/05/21 10:37:33;;;;;;;7.55;2.35;;;19.20;99.90;;;;;;5057370;28;20161;-67
2023/05/21 10:39:59;;;;;;;4.88;2.35;;;19.10;99.90;;;;;;5063928;28;20579;-67
2023/05/21 10:42:30;;;;;;;4.82;1.98;;;19.20;99.90;;;;;;5057980;28;20267;-67
2023/05/21 10:45:14;;;;;;;6.75;2.30;;;19.10;99.90;;;;;;5060753;28;20451;-67
2023/05/21 10:48:02;;;;;;;4.93;1.83;;;19.00;99.90;;;;;;5060022;28;20386;-67
2023/05/21 10:50:37;;;;;;;;;;;19.10;99.90;;;;;;5054720;28;20116;-67
2023/05/21 10:53:12;;;;;;;4.15;1.75;;;19.20;99.90;;;;;;5055399;28;19916;-67
2023/05/21 10:55:51;;;;;;;4.47;2.17;;;19.30;99.90;;;;;;5054827;28;20113;-71
2023/05/21 10:58:31;;;;;;;7.63;2.28;;;19.30;99.90;;;;;;5041316;28;20040;-68
2023/05/21 11:00:59;;;;;;;5.40;1.95;;;19.40;99.90;;;;;;5058221;28;20390;-67
2023/05/21 11:03:25;;;;;;;4.72;2.40;;;19.60;99.90;;;;;;5056493;28;20044;-68
2023/05/21 11:05:52;;;;;;;8.07;2.20;;;19.70;99.90;;;;;;5060021;28;20032;-67
2023/05/21 11:08:27;;;;;;;6.82;2.38;;;19.70;99.90;;;;;;5058157;28;20242;-68
2023/05/21 11:10:57;;;;;;;4.80;2.13;;;19.70;99.90;;;;;;5057400;28;20745;-67
2023/05/21 11:13:30;;;;;;;5.65;3.05;;;19.80;99.90;;;;;;5057956;28;20093;-68
2023/05/21 11:16:01;;;;;;;5.10;2.05;;;19.90;99.90;;;;;;5054672;28;20040;-68
2023/05/21 11:18:39;;;;;;;4.70;1.98;;;19.90;99.90;;;;;;5059866;28;20044;-74
2023/05/21 11:21:05;;;;;;;6.43;2.58;;;20.00;99.90;;;;;;5062561;28;20253;-68
2023/05/21 11:23:49;;;;;;;;;;;20.00;99.90;;;;;;5070828;28;20053;-68
2023/05/21 11:26:22;;;;;;;4.82;1.67;;;20.10;99.90;;;;;;5056237;28;20307;-67
2023/05/21 11:29:03;;;;;;;3.92;1.70;;;20.10;99.90;;;;;;5062884;28;20040;-67
2023/05/21 11:31:39;;;;;;;7.05;1.80;;;20.30;99.90;;;;;;5058630;28;20294;-68
2023/05/21 11:34:12;;;;;;;;;;;20.20;99.90;;;;;;5062277;28;20040;-68
2023/05/21 11:36:48;;;;;;;5.63;1.90;;;20.30;99.90;;;;;;5072931;28;19920;-68
2023/05/21 11:39:21;;;;;;;4.78;1.70;;;20.30;99.90;;;;;;5055439;28;20075;-67
2023/05/21 11:41:53;;;;;;;6.43;2.45;;;20.50;99.90;;;;;;5061345;28;20045;-67
2023/05/21 11:44:39;;;;;;;6.13;1.85;;;20.50;99.90;;;;;;5055181;28;20343;-68
2023/05/21 11:47:07;;;;;;;4.20;1.95;;;20.50;99.90;;;;;;5035106;28;20439;-67
2023/05/21 11:49:33;;;;;;;5.10;2.42;;;20.50;99.90;;;;;;5052865;28;20044;-67
2023/05/21 11:52:06;;;;;;;6.55;2.03;;;20.40;99.90;;;;;;5053858;28;20060;-68
2023/05/21 11:54:35;;;;;;;4.10;1.90;;;20.50;99.90;;;;;;5061206;28;20043;-67
2023/05/21 11:57:04;;;;;;;3.50;2.03;;;20.60;99.90;;;;;;5049935;28;20067;-67
2023/05/21 11:59:32;;;;;;;5.57;2.10;;;20.80;99.90;;;;;;5062507;28;20099;-67
2023/05/21 12:01:58;;;;;;;7.60;2.38;;;20.90;99.90;;;;;;5062280;28;20040;-68
2023/05/21 12:04:28;;;;;;;;;;;21.00;99.90;;;;;;5063465;28;20134;-67
2023/05/21 12:06:54;;;;;;;9.10;2.10;;;21.10;99.90;;;;;;5065878;28;20076;-68
2023/05/21 12:09:20;;;;;;;;;;;21.10;99.90;;;;;;5063083;28;20222;-67
2023/05/21 12:11:45;;;;;;;3.75;1.90;;;21.10;99.90;;;;;;5060445;28;20502;-68
2023/05/21 12:14:11;;;;;;;3.85;2.00;;;21.10;99.90;;;;;;5067621;28;20067;-68
2023/05/21 12:16:37;;;;;;;;;;;21.20;99.90;;;;;;5040484;28;20056;-67
2023/05/21 12:19:04;;;;;;;10.55;2.80;;;21.20;99.90;;;;;;5054611;28;19920;-68
2023/05/21 12:21:30;;;;;;;8.07;2.65;;;21.30;99.90;;;;;;5064753;28;20043;-67
2023/05/21 12:23:56;;;;;;;4.45;2.60;;;21.40;99.90;;;;;;5071597;28;20095;-67
2023/05/21 12:26:24;;;;;;;10.55;2.80;;;21.40;99.90;;;;;;5058642;28;20579;-68
2023/05/21 12:28:54;;;;;;;8.10;3.13;;;21.40;99.90;;;;;;5056659;28;20195;-67
2023/05/21 12:31:26;;;;;;;7.32;2.60;;;21.40;99.90;;;;;;5056128;28;20212;-68
2023/05/21 12:33:52;;;;;;;8.18;2.50;;;21.40;99.90;;;;;;5064375;28;20460;-67
2023/05/21 12:36:30;;;;;;;6.72;2.58;;;21.50;99.90;;;;;;5060509;28;20048;-68
2023/05/21 12:38:56;;;;;;;6.47;2.45;;;21.60;99.90;;;;;;5058375;28;20044;-68
2023/05/21 12:41:22;;;;;;;7.90;2.63;;;21.70;99.90;;;;;;5066674;28;20036;-67
2023/05/21 12:43:49;;;;;;;;;;;21.70;99.90;;;;;;5091073;22;20054;-66
2023/05/21 12:46:17;;;;;;;5.23;2.57;;;21.70;99.90;;;;;;5080101;28;20340;-72
2023/05/21 12:48:52;;;;;;;8.25;2.63;;;21.70;99.90;;;;;;5074772;28;20041;-68
2023/05/21 12:51:36;;;;;;;6.88;3.60;;;21.70;99.90;;;;;;5081181;28;20036;-70
2023/05/21 12:54:02;;;;;;;4.95;2.90;;;21.70;99.90;;;;;;5057603;28;20477;-69